Time;durP1;ratioP1;P1;durP2;ratioP2;P2;SDS_P1;SDS_P2;PMS_P1;PMS_P2;Temp;Humidity;BMP_temperature;BMP_pressure;BME280_temperature;BME280_humidity;BME280_pressure;Samples;Min_cycle;Max_cycle;Signal;HPM_P1;HPM_P2
2021/06/30 00:00:37;;;;;;;14.60;13.38;;;22.40;99.90;;;;;;5109292;28;20206;-73
2021/06/30 00:03:04;;;;;;;14.82;13.35;;;22.40;99.90;;;;;;5109355;28;20233;-73
2021/06/30 00:05:32;;;;;;;14.02;12.82;;;22.40;99.90;;;;;;5109411;28;20210;-73
2021/06/30 00:07:59;;;;;;;15.85;14.10;;;22.50;99.90;;;;;;5109006;27;20656;-73
2021/06/30 00:10:26;;;;;;;14.88;13.52;;;22.50;99.90;;;;;;5109267;28;20287;-73
2021/06/30 00:12:52;;;;;;;15.43;13.93;;;22.50;99.90;;;;;;5109306;28;20198;-73
2021/06/30 00:15:21;;;;;;;15.52;14.13;;;22.50;99.90;;;;;;5108843;28;20248;-73
2021/06/30 00:17:48;;;;;;;14.35;13.18;;;22.50;99.90;;;;;;5108912;28;20202;-73
2021/06/30 00:20:15;;;;;;;15.02;13.63;;;22.50;99.90;;;;;;5109054;28;20225;-73
2021/06/30 00:22:43;;;;;;;15.35;13.82;;;22.40;99.90;;;;;;5108893;28;20257;-73
2021/06/30 00:25:11;;;;;;;14.77;13.32;;;22.20;99.90;;;;;;5108998;27;20345;-75
2021/06/30 00:27:37;;;;;;;14.90;13.63;;;22.20;99.90;;;;;;5108982;28;20645;-75
2021/06/30 00:30:05;;;;;;;16.17;14.68;;;22.20;99.90;;;;;;5109159;28;20585;-75
2021/06/30 00:32:32;;;;;;;16.40;14.80;;;22.20;99.90;;;;;;5108899;28;20234;-74
2021/06/30 00:34:59;;;;;;;16.05;14.55;;;22.20;99.90;;;;;;5108991;28;20206;-74
2021/06/30 00:37:25;;;;;;;16.35;14.68;;;22.20;99.90;;;;;;5108847;27;20462;-74
2021/06/30 00:39:53;;;;;;;16.55;15.02;;;22.30;99.90;;;;;;5108602;28;20729;-74
2021/06/30 00:42:20;;;;;;;15.50;14.02;;;22.30;99.90;;;;;;5108731;28;20232;-74
2021/06/30 00:44:47;;;;;;;15.02;13.65;;;22.30;99.90;;;;;;5108626;28;20198;-75
2021/06/30 00:47:14;;;;;;;16.58;14.98;;;22.30;99.90;;;;;;5109079;28;20267;-74
2021/06/30 00:49:40;;;;;;;16.60;13.93;;;22.40;99.90;;;;;;5108782;28;20206;-74
2021/06/30 00:52:07;;;;;;;16.08;14.65;;;22.40;99.90;;;;;;5108827;28;20206;-74
2021/06/30 00:54:34;;;;;;;14.80;13.60;;;22.40;99.90;;;;;;5108769;28;20214;-75
2021/06/30 00:57:02;;;;;;;15.88;14.30;;;22.40;99.90;;;;;;5108239;28;20767;-73
2021/06/30 00:59:29;;;;;;;16.35;14.95;;;22.40;99.90;;;;;;5108635;28;20230;-74
2021/06/30 01:01:56;;;;;;;16.25;14.95;;;22.40;99.90;;;;;;5108881;28;20202;-74
2021/06/30 01:04:22;;;;;;;16.53;15.03;;;22.40;99.90;;;;;;5108298;28;20225;-74
2021/06/30 01:06:49;;;;;;;16.65;15.00;;;22.40;99.90;;;;;;5108665;28;20263;-74
2021/06/30 01:09:16;;;;;;;15.60;14.25;;;22.40;99.90;;;;;;5108508;28;20201;-74
2021/06/30 01:11:43;;;;;;;19.20;15.77;;;22.30;99.90;;;;;;5108560;28;20664;-73
2021/06/30 01:14:11;;;;;;;17.23;15.50;;;22.30;99.90;;;;;;5102385;28;20264;-74
2021/06/30 01:16:37;;;;;;;15.93;14.50;;;22.20;99.90;;;;;;5088086;28;20202;-73
2021/06/30 01:19:04;;;;;;;17.40;15.75;;;22.20;99.90;;;;;;5088136;28;20203;-73
2021/06/30 01:21:31;;;;;;;16.88;15.27;;;22.20;99.90;;;;;;5087892;28;20237;-74
2021/06/30 01:23:59;;;;;;;18.15;16.40;;;22.30;99.90;;;;;;5087986;28;20226;-74
2021/06/30 01:26:25;;;;;;;18.03;16.23;;;22.30;99.90;;;;;;5087845;28;20279;-74
2021/06/30 01:28:52;;;;;;;16.60;15.20;;;22.30;99.90;;;;;;5087991;28;20238;-73
2021/06/30 01:31:18;;;;;;;18.05;16.40;;;22.30;99.90;;;;;;5090184;28;20242;-73
2021/06/30 01:33:45;;;;;;;18.25;16.38;;;22.30;99.90;;;;;;5091906;28;20628;-74
2021/06/30 01:36:12;;;;;;;17.38;15.57;;;22.30;99.90;;;;;;5091937;28;20211;-73
2021/06/30 01:38:38;;;;;;;17.85;16.15;;;22.30;99.90;;;;;;5091802;28;20238;-73
2021/06/30 01:41:07;;;;;;;17.85;16.23;;;22.30;99.90;;;;;;5091912;28;20232;-73
2021/06/30 01:43:33;;;;;;;18.40;16.77;;;22.30;99.90;;;;;;5091541;28;20249;-73
2021/06/30 01:46:00;;;;;;;19.63;17.73;;;22.40;99.90;;;;;;5091735;28;20280;-73
2021/06/30 01:48:26;;;;;;;20.08;17.20;;;22.30;99.90;;;;;;5091602;28;20203;-73
2021/06/30 01:50:54;;;;;;;18.17;16.52;;;22.30;99.90;;;;;;5091761;28;20295;-73
2021/06/30 01:53:21;;;;;;;19.40;17.55;;;22.30;99.90;;;;;;5091799;28;20232;-74
2021/06/30 01:55:48;;;;;;;19.48;17.70;;;22.30;99.90;;;;;;5091565;28;20207;-74
2021/06/30 01:58:19;;;;;;;19.33;17.53;;;22.30;99.90;;;;;;5091107;28;20246;-74
2021/06/30 02:00:48;;;;;;;20.70;18.67;;;22.30;99.90;;;;;;5091629;28;20271;-74
2021/06/30 02:03:15;;;;;;;19.30;17.45;;;22.20;99.90;;;;;;5091343;28;20258;-74
2021/06/30 02:05:41;;;;;;;19.92;18.05;;;22.10;99.90;;;;;;5090889;28;20669;-74
2021/06/30 02:08:08;;;;;;;20.38;18.48;;;22.10;99.90;;;;;;5091309;28;20206;-74
2021/06/30 02:10:35;;;;;;;20.52;18.38;;;21.90;99.90;;;;;;5091158;28;20203;-74
2021/06/30 02:13:02;;;;;;;22.60;20.13;;;21.80;99.90;;;;;;5091117;28;20231;-74
2021/06/30 02:15:31;;;;;;;21.03;19.03;;;21.60;99.90;;;;;;5090937;28;20199;-74
2021/06/30 02:18:00;;;;;;;21.67;19.40;;;21.30;99.90;;;;;;5090793;28;20267;-73
2021/06/30 02:20:28;;;;;;;20.37;18.53;;;21.30;99.90;;;;;;5091110;28;20203;-73
2021/06/30 02:22:56;;;;;;;21.23;19.13;;;21.00;99.90;;;;;;5091000;28;20203;-73
2021/06/30 02:25:25;;;;;;;21.07;19.13;;;20.90;99.90;;;;;;5090846;28;20223;-74
2021/06/30 02:27:52;;;;;;;19.50;17.80;;;20.80;99.90;;;;;;5091055;28;20237;-74
2021/06/30 02:30:21;;;;;;;18.70;17.00;;;20.90;99.90;;;;;;5090717;28;20287;-74
2021/06/30 02:32:49;;;;;;;17.93;16.30;;;21.00;99.90;;;;;;5090225;28;20225;-73
2021/06/30 02:35:19;;;;;;;17.70;15.93;;;21.10;99.90;;;;;;5096667;28;20232;-73
2021/06/30 02:37:47;;;;;;;16.57;15.00;;;21.30;99.90;;;;;;5097804;28;20222;-74
2021/06/30 02:40:16;;;;;;;16.60;15.20;;;21.40;99.90;;;;;;5098799;28;20255;-74
2021/06/30 02:42:46;;;;;;;16.53;15.13;;;21.50;99.90;;;;;;5095573;28;20206;-74
2021/06/30 02:45:14;;;;;;;15.30;13.97;;;21.60;99.90;;;;;;5103640;28;20269;-74
2021/06/30 02:47:43;;;;;;;15.83;14.37;;;21.60;99.90;;;;;;5088524;28;20207;-74
2021/06/30 02:50:13;;;;;;;16.77;15.10;;;21.70;99.90;;;;;;5088941;28;20254;-74
2021/06/30 02:52:40;;;;;;;14.77;13.48;;;21.80;99.90;;;;;;5088449;28;20202;-75
2021/06/30 02:55:09;;;;;;;15.27;13.97;;;21.70;99.90;;;;;;5087708;28;20609;-75
2021/06/30 02:57:36;;;;;;;15.17;13.77;;;21.50;99.90;;;;;;5087539;28;20253;-74
2021/06/30 03:00:04;;;;;;;16.20;14.83;;;21.40;99.90;;;;;;5088023;28;20206;-74
2021/06/30 03:02:31;;;;;;;17.10;15.40;;;21.20;99.90;;;;;;5088030;28;20242;-74
2021/06/30 03:04:57;;;;;;;18.63;17.00;;;21.20;99.90;;;;;;5093395;28;20256;-73
2021/06/30 03:07:25;;;;;;;18.83;17.10;;;20.90;99.90;;;;;;5108497;28;20243;-73
2021/06/30 03:09:52;;;;;;;17.87;16.30;;;20.80;99.90;;;;;;5108144;28;20754;-74
2021/06/30 03:12:18;;;;;;;18.90;17.20;;;20.70;99.90;;;;;;5108243;28;20274;-73
2021/06/30 03:14:45;;;;;;;19.30;17.23;;;20.70;99.90;;;;;;5107978;28;20246;-74
2021/06/30 03:17:12;;;;;;;18.63;17.00;;;20.80;99.90;;;;;;5106049;28;20657;-74
2021/06/30 03:19:38;;;;;;;18.47;16.80;;;21.00;99.90;;;;;;5089719;28;20617;-74
2021/06/30 03:22:05;;;;;;;20.37;18.40;;;21.10;99.90;;;;;;5089191;28;20261;-74
2021/06/30 03:24:33;;;;;;;21.53;17.67;;;21.20;99.90;;;;;;5088177;28;20292;-74
2021/06/30 03:26:59;;;;;;;18.08;16.35;;;21.20;99.90;;;;;;5088469;28;20238;-75
2021/06/30 03:29:26;;;;;;;18.40;16.50;;;21.30;99.90;;;;;;5088552;28;20238;-74
2021/06/30 03:31:54;;;;;;;18.20;16.63;;;21.40;99.90;;;;;;5088251;28;20224;-74
2021/06/30 03:34:21;;;;;;;18.50;16.90;;;21.50;99.90;;;;;;5088259;28;20207;-74
2021/06/30 03:36:48;;;;;;;17.97;16.57;;;21.60;99.90;;;;;;5088218;28;20207;-74
2021/06/30 03:39:14;;;;;;;18.58;16.90;;;21.60;99.90;;;;;;5089533;28;20211;-75
2021/06/30 03:41:42;;;;;;;20.87;19.00;;;21.60;99.90;;;;;;5089473;28;20202;-74
2021/06/30 03:44:09;;;;;;;21.77;19.53;;;21.60;99.90;;;;;;5089358;28;20674;-74
2021/06/30 03:46:35;;;;;;;22.57;20.40;;;21.70;99.90;;;;;;5089318;28;20236;-74
2021/06/30 03:49:02;;;;;;;22.42;20.27;;;21.70;99.90;;;;;;5089184;28;20358;-75
2021/06/30 03:51:29;;;;;;;22.63;20.60;;;21.70;99.90;;;;;;5089473;28;20252;-74
2021/06/30 03:53:55;;;;;;;21.93;19.93;;;21.70;99.90;;;;;;5088617;28;20319;-74
2021/06/30 03:56:25;;;;;;;25.67;23.07;;;21.70;99.90;;;;;;5088756;28;20234;-74
2021/06/30 03:58:54;;;;;;;29.03;26.33;;;21.40;99.90;;;;;;5089144;28;20201;-74
2021/06/30 04:01:21;;;;;;;27.67;24.97;;;21.00;99.90;;;;;;5089191;28;20207;-74
2021/06/30 04:03:52;;;;;;;28.63;25.73;;;20.80;99.90;;;;;;5088690;28;20230;-74
2021/06/30 04:06:19;;;;;;;25.77;23.47;;;20.80;99.90;;;;;;5089248;28;20186;-74
2021/06/30 04:08:45;;;;;;;22.07;20.03;;;20.60;99.90;;;;;;5089046;28;20238;-74
2021/06/30 04:11:12;;;;;;;22.83;20.73;;;20.40;99.90;;;;;;5088819;28;20945;-74
2021/06/30 04:13:39;;;;;;;21.93;19.80;;;20.20;99.90;;;;;;5088906;28;20275;-74
2021/06/30 04:16:07;;;;;;;19.17;17.57;;;20.30;99.90;;;;;;5088807;28;20500;-74
2021/06/30 04:18:33;;;;;;;19.73;17.93;;;20.40;99.90;;;;;;5088487;28;20732;-73
2021/06/30 04:21:00;;;;;;;19.30;17.50;;;20.40;99.90;;;;;;5088971;28;20343;-74
2021/06/30 04:23:27;;;;;;;20.13;18.20;;;20.60;99.90;;;;;;5088678;28;20199;-74
2021/06/30 04:25:54;;;;;;;17.77;16.27;;;20.60;99.90;;;;;;5088713;28;20280;-74
2021/06/30 04:28:20;;;;;;;18.03;16.53;;;20.60;99.90;;;;;;5088908;28;20267;-74
2021/06/30 04:30:48;;;;;;;17.20;15.60;;;20.70;99.90;;;;;;5088570;28;20246;-74
2021/06/30 04:33:16;;;;;;;17.57;15.83;;;20.50;99.90;;;;;;5088768;28;20245;-74
2021/06/30 04:35:43;;;;;;;16.23;14.93;;;20.40;99.90;;;;;;5088700;28;20268;-74
2021/06/30 04:38:10;;;;;;;16.73;15.07;;;20.40;99.90;;;;;;5088821;28;20419;-74
2021/06/30 04:40:36;;;;;;;15.43;13.93;;;20.30;99.90;;;;;;5088580;28;20199;-74
2021/06/30 04:43:03;;;;;;;15.97;14.57;;;20.30;99.90;;;;;;5088496;28;20232;-74
2021/06/30 04:45:29;;;;;;;16.60;15.20;;;20.10;99.90;;;;;;5088616;28;20322;-74
2021/06/30 04:47:56;;;;;;;15.60;14.00;;;20.00;99.90;;;;;;5088413;28;20207;-74
2021/06/30 04:50:24;;;;;;;17.37;15.97;;;20.10;99.90;;;;;;5088382;28;20283;-74
2021/06/30 04:52:51;;;;;;;17.00;15.50;;;20.20;99.90;;;;;;5088445;28;20263;-74
2021/06/30 04:55:17;;;;;;;16.43;15.07;;;20.20;99.90;;;;;;5088368;28;20279;-74
2021/06/30 04:57:44;;;;;;;18.43;16.67;;;20.40;99.90;;;;;;5088078;28;20242;-74
2021/06/30 05:00:12;;;;;;;16.33;14.97;;;20.40;99.90;;;;;;5088147;28;20718;-74
2021/06/30 05:02:38;;;;;;;16.60;15.00;;;20.40;99.90;;;;;;5088210;28;20570;-74
2021/06/30 05:05:06;;;;;;;16.33;14.93;;;20.40;99.90;;;;;;5091973;28;20234;-74
2021/06/30 05:07:34;;;;;;;16.60;15.20;;;20.50;99.90;;;;;;5094792;28;20260;-74
2021/06/30 05:10:00;;;;;;;16.17;14.80;;;20.70;99.90;;;;;;5095066;28;20230;-74
2021/06/30 05:12:27;;;;;;;16.03;14.80;;;20.80;99.90;;;;;;5095022;28;20234;-74
2021/06/30 05:14:53;;;;;;;17.13;15.53;;;20.70;99.90;;;;;;5094882;28;20207;-74
2021/06/30 05:17:21;;;;;;;16.90;15.50;;;20.50;99.90;;;;;;5093749;28;20241;-74
2021/06/30 05:19:48;;;;;;;15.67;14.37;;;20.30;99.90;;;;;;5095041;28;20206;-74
2021/06/30 05:22:15;;;;;;;16.10;14.70;;;20.40;99.90;;;;;;5095020;28;20238;-74
2021/06/30 05:24:43;;;;;;;17.63;15.33;;;20.40;99.90;;;;;;5094651;28;20311;-74
2021/06/30 05:27:10;;;;;;;17.80;16.10;;;20.50;99.90;;;;;;5094964;28;20612;-74
2021/06/30 05:29:36;;;;;;;16.90;15.50;;;20.70;99.90;;;;;;5094787;28;20202;-74
2021/06/30 05:32:03;;;;;;;16.07;14.77;;;20.80;99.90;;;;;;5094612;28;20613;-74
2021/06/30 05:34:30;;;;;;;15.80;14.40;;;20.90;99.90;;;;;;5094883;28;20249;-74
2021/06/30 05:36:57;;;;;;;14.90;13.70;;;21.00;99.90;;;;;;5094761;28;20206;-74
2021/06/30 05:39:23;;;;;;;12.80;11.80;;;21.10;99.90;;;;;;5094934;28;20203;-74
2021/06/30 05:41:51;;;;;;;13.73;12.63;;;21.10;99.90;;;;;;5094852;28;20232;-75
2021/06/30 05:44:18;;;;;;;13.10;11.97;;;21.10;99.90;;;;;;5094380;28;20696;-74
2021/06/30 05:46:45;;;;;;;13.20;12.07;;;21.20;99.90;;;;;;5094759;28;20251;-74
2021/06/30 05:49:12;;;;;;;12.13;11.18;;;21.20;99.90;;;;;;5094583;28;20218;-74
2021/06/30 05:51:41;;;;;;;13.17;12.10;;;21.10;99.90;;;;;;5094242;28;20562;-74
2021/06/30 05:54:08;;;;;;;13.27;12.07;;;21.20;99.90;;;;;;5094563;28;20198;-74
2021/06/30 05:56:35;;;;;;;12.23;11.13;;;21.20;99.90;;;;;;5094591;28;20242;-73
2021/06/30 05:59:03;;;;;;;13.40;12.30;;;21.30;99.90;;;;;;5094361;28;20256;-74
2021/06/30 06:01:29;;;;;;;12.67;11.53;;;21.30;99.90;;;;;;5094664;28;20290;-74
2021/06/30 06:03:56;;;;;;;12.03;11.13;;;21.30;99.90;;;;;;5094272;28;20276;-74
2021/06/30 06:06:23;;;;;;;12.30;11.33;;;21.30;99.90;;;;;;5094325;28;20231;-74
2021/06/30 06:08:49;;;;;;;12.47;11.43;;;21.30;99.90;;;;;;5094346;28;20259;-74
2021/06/30 06:11:16;;;;;;;12.07;11.17;;;21.30;99.90;;;;;;5093977;28;20948;-74
2021/06/30 06:13:45;;;;;;;11.20;10.30;;;21.20;99.90;;;;;;5094281;28;20283;-74
2021/06/30 06:16:13;;;;;;;11.97;11.07;;;21.00;99.90;;;;;;5092597;28;20289;-74
2021/06/30 06:18:40;;;;;;;12.50;11.50;;;20.90;99.90;;;;;;5091118;28;20226;-74
2021/06/30 06:21:06;;;;;;;14.47;13.17;;;20.80;99.90;;;;;;5091231;28;20605;-74
2021/06/30 06:23:33;;;;;;;13.97;12.83;;;20.50;99.90;;;;;;5091113;28;20238;-74
2021/06/30 06:25:59;;;;;;;15.67;14.27;;;20.50;99.90;;;;;;5091121;28;20292;-74
2021/06/30 06:28:31;;;;;;;17.27;15.77;;;20.50;99.90;;;;;;5090930;28;20878;-74
2021/06/30 06:30:57;;;;;;;16.97;15.57;;;20.50;99.90;;;;;;5091072;28;20539;-74
2021/06/30 06:33:25;;;;;;;17.93;16.23;;;20.30;99.90;;;;;;5091194;28;20207;-74
2021/06/30 06:35:52;;;;;;;20.07;18.27;;;19.90;99.90;;;;;;5090625;28;20238;-74
2021/06/30 06:38:19;;;;;;;21.37;19.40;;;19.70;99.90;;;;;;5090638;28;21051;-74
2021/06/30 06:40:46;;;;;;;21.60;19.60;;;19.60;99.90;;;;;;5090847;28;20211;-74
2021/06/30 06:43:13;;;;;;;21.87;19.70;;;19.40;99.90;;;;;;5090666;28;20572;-74
2021/06/30 06:45:39;;;;;;;22.57;20.47;;;19.30;99.90;;;;;;5090772;28;20315;-74
2021/06/30 06:48:07;;;;;;;25.27;22.80;;;19.20;99.90;;;;;;5090793;28;20199;-74
2021/06/30 06:50:35;;;;;;;26.70;23.97;;;19.10;99.90;;;;;;5090771;28;20223;-74
2021/06/30 06:53:02;;;;;;;27.50;24.70;;;19.00;99.90;;;;;;5090462;28;20259;-74
2021/06/30 06:55:32;;;;;;;28.83;25.77;;;19.00;99.90;;;;;;5090800;28;20286;-74
2021/06/30 06:57:59;;;;;;;32.23;28.40;;;19.00;99.90;;;;;;5090236;28;20443;-74
2021/06/30 07:00:25;;;;;;;33.10;28.13;;;19.10;99.90;;;;;;5090158;28;20722;-74
2021/06/30 07:02:52;;;;;;;31.90;28.53;;;19.00;99.90;;;;;;5090100;28;20731;-74
2021/06/30 07:05:19;;;;;;;30.93;27.57;;;18.90;99.90;;;;;;5090482;28;20226;-74
2021/06/30 07:07:47;;;;;;;33.37;28.17;;;18.90;99.90;;;;;;5090503;28;20199;-74
2021/06/30 07:10:14;;;;;;;31.60;27.33;;;19.00;99.90;;;;;;5090036;28;20628;-74
2021/06/30 07:12:41;;;;;;;35.60;29.40;;;19.00;99.90;;;;;;5090356;28;20202;-74
2021/06/30 07:15:10;;;;;;;29.20;25.30;;;19.10;99.90;;;;;;5090169;28;20263;-74
2021/06/30 07:17:38;;;;;;;25.77;23.10;;;18.90;99.90;;;;;;5090172;28;20202;-74
2021/06/30 07:20:06;;;;;;;27.27;22.73;;;18.90;99.90;;;;;;5089705;28;20657;-74
2021/06/30 07:22:36;;;;;;;23.03;20.60;;;18.90;99.90;;;;;;5089707;28;20207;-74
2021/06/30 07:25:04;;;;;;;22.60;20.20;;;18.90;99.90;;;;;;5089976;28;20226;-74
2021/06/30 07:27:31;;;;;;;22.30;20.07;;;18.80;99.90;;;;;;5089254;28;20949;-74
2021/06/30 07:29:57;;;;;;;24.07;21.50;;;18.80;99.90;;;;;;5089296;28;20203;-74
2021/06/30 07:32:24;;;;;;;24.30;21.43;;;18.80;99.90;;;;;;5089979;28;20637;-74
2021/06/30 07:34:51;;;;;;;25.03;22.33;;;18.70;99.90;;;;;;5089780;28;20203;-74
2021/06/30 07:37:18;;;;;;;23.60;21.10;;;18.70;99.90;;;;;;5089978;28;20211;-74
2021/06/30 07:39:44;;;;;;;24.43;21.93;;;18.70;99.90;;;;;;5089578;28;21140;-74
2021/06/30 07:42:13;;;;;;;24.17;21.77;;;18.70;99.90;;;;;;5089785;28;20207;-74
2021/06/30 07:44:39;;;;;;;25.90;22.53;;;18.80;99.90;;;;;;5089604;28;20283;-74
2021/06/30 07:47:06;;;;;;;25.43;22.37;;;18.80;99.90;;;;;;5089576;28;20203;-74
2021/06/30 07:49:34;;;;;;;27.13;22.60;;;18.80;99.90;;;;;;5089589;28;20227;-74
2021/06/30 07:52:00;;;;;;;26.07;23.27;;;18.80;99.90;;;;;;5089335;28;20202;-74
2021/06/30 07:54:27;;;;;;;25.90;23.20;;;18.90;99.90;;;;;;5089549;28;20256;-74
2021/06/30 07:56:53;;;;;;;25.53;22.63;;;18.90;99.90;;;;;;5089302;28;20238;-74
2021/06/30 07:59:21;;;;;;;23.40;20.97;;;18.90;99.90;;;;;;5089649;28;20211;-74
2021/06/30 08:01:48;;;;;;;25.27;22.60;;;18.90;99.90;;;;;;5089068;28;20280;-75
2021/06/30 08:04:14;;;;;;;27.07;21.23;;;18.90;99.90;;;;;;5089155;28;20275;-73
2021/06/30 08:06:41;;;;;;;23.93;21.43;;;19.00;99.90;;;;;;5088954;28;20262;-74
2021/06/30 08:09:08;;;;;;;23.33;20.93;;;19.10;99.90;;;;;;5088870;28;20230;-74
2021/06/30 08:11:34;;;;;;;23.63;21.23;;;19.00;99.90;;;;;;5089193;28;20217;-73
2021/06/30 08:14:01;;;;;;;24.53;21.83;;;19.10;99.90;;;;;;5089010;28;20601;-73
2021/06/30 08:16:29;;;;;;;24.13;21.67;;;19.10;99.90;;;;;;5088969;28;20206;-73
2021/06/30 08:18:56;;;;;;;24.60;21.93;;;19.00;99.90;;;;;;5088919;28;20203;-73
2021/06/30 08:21:24;;;;;;;24.10;21.53;;;18.90;99.90;;;;;;5089088;28;20207;-73
2021/06/30 08:23:50;;;;;;;22.53;20.17;;;18.90;99.90;;;;;;5088827;28;20207;-74
2021/06/30 08:26:17;;;;;;;25.03;21.93;;;18.80;99.90;;;;;;5088533;28;20767;-73
2021/06/30 08:28:44;;;;;;;24.03;21.30;;;18.80;99.90;;;;;;5088594;28;20664;-73
2021/06/30 08:31:11;;;;;;;23.33;20.93;;;18.80;99.90;;;;;;5088825;28;20210;-73
2021/06/30 08:33:40;;;;;;;27.23;22.63;;;18.80;99.90;;;;;;5088751;28;20260;-73
2021/06/30 08:36:06;;;;;;;27.73;24.10;;;18.80;99.90;;;;;;5088766;28;20202;-73
2021/06/30 08:38:33;;;;;;;26.00;23.13;;;18.80;99.90;;;;;;5088874;28;20236;-73
2021/06/30 08:41:01;;;;;;;26.43;23.63;;;18.80;99.90;;;;;;5088140;28;20207;-74
2021/06/30 08:43:28;;;;;;;37.57;26.20;;;18.80;99.90;;;;;;5088603;28;20211;-74
2021/06/30 08:45:54;;;;;;;29.07;25.87;;;18.90;99.90;;;;;;5088309;28;20227;-74
2021/06/30 08:48:21;;;;;;;26.93;24.03;;;18.90;99.90;;;;;;5088583;28;20199;-73
2021/06/30 08:50:51;;;;;;;27.70;23.80;;;18.90;99.90;;;;;;5088326;28;20228;-73
2021/06/30 08:53:21;;;;;;;28.67;24.20;;;18.80;99.90;;;;;;5088501;28;20282;-74
2021/06/30 08:55:48;;;;;;;27.47;23.10;;;18.90;99.90;;;;;;5088504;28;20203;-74
2021/06/30 08:58:15;;;;;;;29.27;25.20;;;18.90;99.90;;;;;;5087944;28;20284;-74
2021/06/30 09:00:44;;;;;;;27.17;24.10;;;18.80;99.90;;;;;;5088149;28;20202;-74
2021/06/30 09:03:15;;;;;;;24.57;21.90;;;18.80;99.90;;;;;;5088325;28;20279;-74
2021/06/30 09:06:11;;;;;;;26.33;23.67;;;18.80;99.90;;;;;;5088406;28;20226;-73
2021/06/30 09:09:05;;;;;;;29.37;25.17;;;19.00;99.90;;;;;;5088488;28;20195;-73
2021/06/30 09:11:32;;;;;;;27.50;24.37;;;19.20;99.90;;;;;;5088246;28;20202;-73
2021/06/30 09:14:23;;;;;;;27.57;24.73;;;19.30;99.90;;;;;;5087842;28;20210;-74
2021/06/30 09:16:54;;;;;;;31.77;25.73;;;19.30;99.90;;;;;;5088360;28;20206;-74
2021/06/30 09:19:21;;;;;;;28.60;24.73;;;19.20;99.90;;;;;;5088085;28;20642;-74
2021/06/30 09:21:58;;;;;;;27.30;23.97;;;19.20;99.90;;;;;;5088105;28;20202;-74
2021/06/30 09:24:26;;;;;;;27.57;24.33;;;19.10;99.90;;;;;;5088226;28;20246;-74
2021/06/30 09:26:55;;;;;;;27.63;24.67;;;19.10;99.90;;;;;;5087972;28;20230;-74
2021/06/30 09:29:22;;;;;;;24.43;21.57;;;19.00;99.90;;;;;;5088074;28;20987;-74
2021/06/30 09:31:51;;;;;;;26.60;23.80;;;19.00;99.90;;;;;;5087917;28;20238;-74
2021/06/30 09:34:20;;;;;;;27.53;24.23;;;19.10;99.90;;;;;;5088341;28;20230;-74
2021/06/30 09:36:50;;;;;;;27.33;24.43;;;19.20;99.90;;;;;;5088186;28;20230;-74
2021/06/30 09:39:17;;;;;;;24.20;21.80;;;19.30;99.90;;;;;;5088353;28;20233;-74
2021/06/30 09:41:45;;;;;;;24.30;21.70;;;19.20;99.90;;;;;;5088100;28;20238;-74
2021/06/30 09:44:13;;;;;;;23.57;21.17;;;19.10;99.90;;;;;;5087904;28;20207;-74
2021/06/30 09:46:42;;;;;;;22.17;20.03;;;19.00;99.90;;;;;;5087809;28;20298;-73
2021/06/30 09:49:10;;;;;;;24.00;21.60;;;18.90;99.90;;;;;;5088346;28;20222;-74
2021/06/30 09:51:37;;;;;;;25.40;22.90;;;18.90;99.90;;;;;;5089031;28;20264;-74
2021/06/30 09:54:07;;;;;;;25.47;22.80;;;18.90;99.90;;;;;;5091757;28;20213;-74
2021/06/30 09:56:34;;;;;;;27.70;24.80;;;19.00;99.90;;;;;;5091483;28;20234;-73
2021/06/30 09:59:18;;;;;;;28.03;25.00;;;19.10;99.90;;;;;;5091662;28;20273;-74
2021/06/30 10:01:52;;;;;;;26.70;23.83;;;19.10;99.90;;;;;;5091227;28;20703;-73
2021/06/30 10:04:24;;;;;;;25.90;23.17;;;19.10;99.90;;;;;;5091538;28;20199;-74
2021/06/30 10:06:50;;;;;;;25.30;22.73;;;19.00;99.90;;;;;;5091363;28;20223;-74
2021/06/30 10:09:17;;;;;;;26.27;23.57;;;19.20;99.90;;;;;;5091538;28;20260;-74
2021/06/30 10:11:56;;;;;;;26.03;23.33;;;19.10;99.90;;;;;;5091397;28;20213;-73
2021/06/30 10:14:24;;;;;;;25.43;22.93;;;19.10;99.90;;;;;;5091535;28;20187;-74
2021/06/30 10:16:51;;;;;;;25.47;22.97;;;19.10;99.90;;;;;;5091139;28;20685;-74
2021/06/30 10:19:18;;;;;;;23.80;21.50;;;19.00;99.90;;;;;;5091186;28;20665;-74
2021/06/30 10:21:46;;;;;;;24.03;21.57;;;19.00;99.90;;;;;;5091247;28;20254;-74
2021/06/30 10:24:13;;;;;;;22.43;20.23;;;19.00;99.90;;;;;;5091102;28;20222;-74
2021/06/30 10:26:40;;;;;;;23.77;21.27;;;18.90;99.90;;;;;;5091246;28;20230;-74
2021/06/30 10:29:07;;;;;;;23.60;21.40;;;19.00;99.90;;;;;;5091074;28;20256;-74
2021/06/30 10:31:37;;;;;;;22.57;20.37;;;18.90;99.90;;;;;;5091054;28;20203;-74
2021/06/30 10:34:06;;;;;;;22.93;20.83;;;18.80;99.90;;;;;;5090840;28;20203;-74
2021/06/30 10:36:48;;;;;;;21.93;19.93;;;18.80;99.90;;;;;;5091221;28;20218;-74
2021/06/30 10:39:16;;;;;;;21.73;19.53;;;18.70;99.90;;;;;;5091102;28;20202;-74
2021/06/30 10:41:50;;;;;;;22.97;20.77;;;18.80;99.90;;;;;;5090969;28;20199;-74
2021/06/30 10:44:18;;;;;;;20.27;18.47;;;18.80;99.90;;;;;;5091011;28;20295;-74
2021/06/30 10:46:46;;;;;;;20.63;18.87;;;18.70;99.90;;;;;;5090587;28;20234;-74
2021/06/30 10:49:21;;;;;;;19.27;17.57;;;18.80;99.90;;;;;;5090670;28;20231;-74
2021/06/30 10:51:49;;;;;;;21.20;19.10;;;18.80;99.90;;;;;;5090380;28;20657;-74
2021/06/30 10:54:36;;;;;;;19.13;17.27;;;18.80;99.90;;;;;;5090791;28;20202;-74
2021/06/30 10:57:27;;;;;;;18.00;16.37;;;18.70;99.90;;;;;;5090077;28;20230;-74
2021/06/30 11:00:16;;;;;;;18.47;16.63;;;18.70;99.90;;;;;;5090397;28;20195;-74
2021/06/30 11:02:44;;;;;;;16.57;15.27;;;18.70;99.90;;;;;;5090302;28;20210;-74
2021/06/30 11:05:33;;;;;;;17.67;16.07;;;18.70;99.90;;;;;;5090470;28;20210;-74
2021/06/30 11:07:59;;;;;;;17.03;15.53;;;18.80;99.90;;;;;;5090429;28;20318;-74
2021/06/30 11:10:47;;;;;;;15.70;14.27;;;18.80;99.90;;;;;;5090257;28;20233;-74
2021/06/30 11:13:14;;;;;;;15.03;12.93;;;18.80;99.90;;;;;;5089992;28;20665;-74
2021/06/30 11:15:41;;;;;;;14.20;12.93;;;18.80;99.90;;;;;;5090291;28;20206;-74
2021/06/30 11:18:43;;;;;;;14.10;12.90;;;18.90;99.90;;;;;;5090227;28;20210;-74
2021/06/30 11:21:12;;;;;;;13.33;12.33;;;18.90;99.90;;;;;;5090061;28;20194;-74
2021/06/30 11:23:43;;;;;;;14.47;13.07;;;18.90;99.90;;;;;;5090140;28;20675;-74
2021/06/30 11:26:38;;;;;;;12.53;11.63;;;18.80;99.90;;;;;;5089852;28;20229;-74
2021/06/30 11:29:42;;;;;;;12.40;11.43;;;18.80;99.90;;;;;;5090021;28;20996;-74
2021/06/30 11:32:09;;;;;;;13.33;12.03;;;18.80;99.90;;;;;;5089325;28;20607;-74
2021/06/30 11:34:39;;;;;;;12.23;11.33;;;18.70;99.90;;;;;;5089593;28;20680;-74
2021/06/30 11:37:07;;;;;;;12.43;11.53;;;18.70;99.90;;;;;;5089837;28;20260;-74
2021/06/30 11:39:34;;;;;;;12.03;11.13;;;18.70;99.90;;;;;;5089998;28;20230;-74
2021/06/30 11:42:07;;;;;;;12.00;11.10;;;18.70;99.90;;;;;;5089543;28;20215;-74
2021/06/30 11:44:34;;;;;;;11.93;11.10;;;18.70;99.90;;;;;;5089558;28;20202;-74
2021/06/30 11:47:03;;;;;;;11.80;10.90;;;18.80;99.90;;;;;;5089402;28;20236;-74
2021/06/30 11:49:30;;;;;;;11.97;11.00;;;18.80;99.90;;;;;;5089650;28;20222;-74
2021/06/30 11:51:59;;;;;;;11.63;10.63;;;18.80;99.90;;;;;;5089505;28;20279;-74
2021/06/30 11:54:28;;;;;;;11.63;10.77;;;18.80;99.90;;;;;;5089160;28;21009;-74
2021/06/30 11:56:56;;;;;;;11.33;10.37;;;18.90;99.90;;;;;;5089027;28;20234;-74
2021/06/30 11:59:23;;;;;;;9.20;8.60;;;18.90;99.90;;;;;;5089307;28;20211;-74
2021/06/30 12:01:51;;;;;;;9.83;9.07;;;18.80;99.90;;;;;;5089173;28;20284;-74
2021/06/30 12:04:24;;;;;;;9.37;8.70;;;18.80;99.90;;;;;;5089157;28;20272;-74
2021/06/30 12:06:56;;;;;;;9.63;8.90;;;18.80;99.90;;;;;;5089473;28;20219;-74
2021/06/30 12:09:25;;;;;;;9.33;8.63;;;18.80;99.90;;;;;;5089264;28;20195;-74
2021/06/30 12:11:54;;;;;;;7.17;6.63;;;18.80;99.90;;;;;;5089308;28;20370;-74
2021/06/30 12:14:23;;;;;;;7.60;6.17;;;18.70;99.90;;;;;;5088332;28;20214;-74
2021/06/30 12:16:58;;;;;;;8.20;7.50;;;18.50;99.90;;;;;;5089171;28;21018;-74
2021/06/30 12:19:37;;;;;;;7.47;6.97;;;18.50;99.90;;;;;;5089225;28;20195;-74
2021/06/30 12:22:20;;;;;;;8.80;8.20;;;18.50;99.90;;;;;;5088985;28;20202;-74
2021/06/30 12:24:52;;;;;;;10.10;9.20;;;18.40;99.90;;;;;;5089213;28;20226;-74
2021/06/30 12:27:18;;;;;;;10.10;9.30;;;18.40;99.90;;;;;;5088908;28;20253;-74
2021/06/30 12:29:45;;;;;;;9.37;8.57;;;18.30;99.90;;;;;;5088838;28;20210;-74
2021/06/30 12:32:13;;;;;;;8.93;8.27;;;18.30;99.90;;;;;;5088241;28;20721;-74
2021/06/30 12:34:41;;;;;;;8.20;7.50;;;18.30;99.90;;;;;;5088730;28;20268;-74